sensor_id;sensor_type;location;lat;lon;timestamp;temperature;humidity
15127;DHT22;7664;52.008;4.748;2023-08-20T00:01:40;20.40;99.90
15127;DHT22;7664;52.008;4.748;2023-08-20T00:04:09;20.40;99.90
15127;DHT22;7664;52.008;4.748;2023-08-20T00:06:38;20.40;99.90
15127;DHT22;7664;52.008;4.748;2023-08-20T00:09:07;20.40;99.90
15127;DHT22;7664;52.008;4.748;2023-08-20T00:11:36;20.40;99.90
15127;DHT22;7664;52.008;4.748;2023-08-20T00:14:06;20.40;99.90
15127;DHT22;7664;52.008;4.748;2023-08-20T00:16:35;20.50;99.90
15127;DHT22;7664;52.008;4.748;2023-08-20T00:19:04;20.40;99.90
15127;DHT22;7664;52.008;4.748;2023-08-20T00:21:34;20.40;99.90
15127;DHT22;7664;52.008;4.748;2023-08-20T00:24:03;20.40;99.90
15127;DHT22;7664;52.008;4.748;2023-08-20T00:26:33;20.40;99.90
15127;DHT22;7664;52.008;4.748;2023-08-20T00:29:02;20.40;99.90
15127;DHT22;7664;52.008;4.748;2023-08-20T00:31:30;20.40;99.90
15127;DHT22;7664;52.008;4.748;2023-08-20T00:33:58;20.40;99.90
15127;DHT22;7664;52.008;4.748;2023-08-20T00:36:33;20.40;99.90
15127;DHT22;7664;52.008;4.748;2023-08-20T00:39:02;20.40;99.90
15127;DHT22;7664;52.008;4.748;2023-08-20T00:41:31;20.30;99.90
15127;DHT22;7664;52.008;4.748;2023-08-20T00:43:59;20.30;99.90
15127;DHT22;7664;52.008;4.748;2023-08-20T00:46:27;20.30;99.90
15127;DHT22;7664;52.008;4.748;2023-08-20T00:48:56;20.30;99.90
15127;DHT22;7664;52.008;4.748;2023-08-20T00:51:24;20.30;99.90
15127;DHT22;7664;52.008;4.748;2023-08-20T00:53:53;20.30;99.90
15127;DHT22;7664;52.008;4.748;2023-08-20T00:56:21;20.30;99.90
15127;DHT22;7664;52.008;4.748;2023-08-20T00:58:52;20.30;99.90
15127;DHT22;7664;52.008;4.748;2023-08-20T01:01:21;20.30;99.90
15127;DHT22;7664;52.008;4.748;2023-08-20T01:03:49;20.30;99.90
15127;DHT22;7664;52.008;4.748;2023-08-20T01:06:32;20.30;99.90
15127;DHT22;7664;52.008;4.748;2023-08-20T01:09:09;20.30;99.90
15127;DHT22;7664;52.008;4.748;2023-08-20T01:11:46;20.20;99.90
15127;DHT22;7664;52.008;4.748;2023-08-20T01:14:18;20.20;99.90
15127;DHT22;7664;52.008;4.748;2023-08-20T01:16:48;20.20;99.90
15127;DHT22;7664;52.008;4.748;2023-08-20T01:19:18;20.10;99.90
15127;DHT22;7664;52.008;4.748;2023-08-20T01:21:56;20.10;99.90
15127;DHT22;7664;52.008;4.748;2023-08-20T01:24:38;20.10;99.90
15127;DHT22;7664;52.008;4.748;2023-08-20T01:27:25;20.00;99.90
15127;DHT22;7664;52.008;4.748;2023-08-20T01:29:55;20.00;99.90
15127;DHT22;7664;52.008;4.748;2023-08-20T01:32:24;20.00;99.90
15127;DHT22;7664;52.008;4.748;2023-08-20T01:34:53;20.00;99.90
15127;DHT22;7664;52.008;4.748;2023-08-20T01:37:21;20.00;99.90
15127;DHT22;7664;52.008;4.748;2023-08-20T01:39:50;20.00;99.90
15127;DHT22;7664;52.008;4.748;2023-08-20T01:42:18;20.00;99.90
15127;DHT22;7664;52.008;4.748;2023-08-20T01:44:46;20.00;99.90
15127;DHT22;7664;52.008;4.748;2023-08-20T01:47:15;20.00;99.90
15127;DHT22;7664;52.008;4.748;2023-08-20T01:49:43;20.00;99.90
15127;DHT22;7664;52.008;4.748;2023-08-20T01:52:12;19.90;99.90
15127;DHT22;7664;52.008;4.748;2023-08-20T01:54:40;19.90;99.90
15127;DHT22;7664;52.008;4.748;2023-08-20T01:57:09;19.80;99.90
15127;DHT22;7664;52.008;4.748;2023-08-20T01:59:37;19.80;99.90
15127;DHT22;7664;52.008;4.748;2023-08-20T02:02:05;19.80;99.90
15127;DHT22;7664;52.008;4.748;2023-08-20T02:04:35;19.70;99.90
15127;DHT22;7664;52.008;4.748;2023-08-20T02:07:04;19.70;99.90
15127;DHT22;7664;52.008;4.748;2023-08-20T02:09:32;19.60;99.90
15127;DHT22;7664;52.008;4.748;2023-08-20T02:12:00;19.60;99.90
15127;DHT22;7664;52.008;4.748;2023-08-20T02:14:28;19.60;99.90
15127;DHT22;7664;52.008;4.748;2023-08-20T02:16:56;19.50;99.90
15127;DHT22;7664;52.008;4.748;2023-08-20T02:19:24;19.60;99.90
15127;DHT22;7664;52.008;4.748;2023-08-20T02:21:54;19.50;99.90
15127;DHT22;7664;52.008;4.748;2023-08-20T02:24:22;19.50;99.90
15127;DHT22;7664;52.008;4.748;2023-08-20T02:26:50;19.50;99.90
15127;DHT22;7664;52.008;4.748;2023-08-20T02:29:18;19.40;99.90
15127;DHT22;7664;52.008;4.748;2023-08-20T02:31:46;19.40;99.90
15127;DHT22;7664;52.008;4.748;2023-08-20T02:34:16;19.40;99.90
15127;DHT22;7664;52.008;4.748;2023-08-20T02:36:46;19.30;99.90
15127;DHT22;7664;52.008;4.748;2023-08-20T02:39:16;19.30;99.90
15127;DHT22;7664;52.008;4.748;2023-08-20T02:41:44;19.30;99.90
15127;DHT22;7664;52.008;4.748;2023-08-20T02:44:12;19.20;99.90
15127;DHT22;7664;52.008;4.748;2023-08-20T02:46:41;19.20;99.90
15127;DHT22;7664;52.008;4.748;2023-08-20T02:49:11;19.20;99.90
15127;DHT22;7664;52.008;4.748;2023-08-20T02:51:43;19.20;99.90
15127;DHT22;7664;52.008;4.748;2023-08-20T02:54:11;19.20;99.90
15127;DHT22;7664;52.008;4.748;2023-08-20T02:56:40;19.20;99.90
15127;DHT22;7664;52.008;4.748;2023-08-20T02:59:08;19.10;99.90
15127;DHT22;7664;52.008;4.748;2023-08-20T03:01:37;19.20;99.90
15127;DHT22;7664;52.008;4.748;2023-08-20T03:04:05;19.10;99.90
15127;DHT22;7664;52.008;4.748;2023-08-20T03:06:33;19.10;99.90
15127;DHT22;7664;52.008;4.748;2023-08-20T03:09:02;19.10;99.90
15127;DHT22;7664;52.008;4.748;2023-08-20T03:11:31;19.10;99.90
15127;DHT22;7664;52.008;4.748;2023-08-20T03:14:00;19.20;99.90
15127;DHT22;7664;52.008;4.748;2023-08-20T03:16:28;19.20;99.90
15127;DHT22;7664;52.008;4.748;2023-08-20T03:18:56;19.20;99.90
15127;DHT22;7664;52.008;4.748;2023-08-20T03:21:25;19.20;99.90
15127;DHT22;7664;52.008;4.748;2023-08-20T03:23:53;19.20;99.90
15127;DHT22;7664;52.008;4.748;2023-08-20T03:26:21;19.20;99.90
15127;DHT22;7664;52.008;4.748;2023-08-20T03:28:49;19.20;99.90
15127;DHT22;7664;52.008;4.748;2023-08-20T03:31:18;19.00;99.90
15127;DHT22;7664;52.008;4.748;2023-08-20T03:33:47;19.10;99.90
15127;DHT22;7664;52.008;4.748;2023-08-20T03:36:16;19.10;99.90
15127;DHT22;7664;52.008;4.748;2023-08-20T03:38:44;19.00;99.90
15127;DHT22;7664;52.008;4.748;2023-08-20T03:41:12;19.00;99.90
15127;DHT22;7664;52.008;4.748;2023-08-20T03:43:41;19.00;99.90
15127;DHT22;7664;52.008;4.748;2023-08-20T03:46:10;19.00;99.90
15127;DHT22;7664;52.008;4.748;2023-08-20T03:48:39;19.00;99.90
15127;DHT22;7664;52.008;4.748;2023-08-20T03:51:07;18.90;99.90
15127;DHT22;7664;52.008;4.748;2023-08-20T03:53:35;18.90;99.90
15127;DHT22;7664;52.008;4.748;2023-08-20T03:56:03;18.80;99.90
15127;DHT22;7664;52.008;4.748;2023-08-20T03:58:36;18.80;99.90
15127;DHT22;7664;52.008;4.748;2023-08-20T04:01:04;18.80;99.90
15127;DHT22;7664;52.008;4.748;2023-08-20T04:03:32;18.80;99.90
15127;DHT22;7664;52.008;4.748;2023-08-20T04:06:02;18.80;99.90
15127;DHT22;7664;52.008;4.748;2023-08-20T04:08:30;18.80;99.90
15127;DHT22;7664;52.008;4.748;2023-08-20T04:10:58;18.70;99.90
15127;DHT22;7664;52.008;4.748;2023-08-20T04:13:28;18.70;99.90
15127;DHT22;7664;52.008;4.748;2023-08-20T04:15:56;18.70;99.90
15127;DHT22;7664;52.008;4.748;2023-08-20T04:18:24;18.70;99.90
15127;DHT22;7664;52.008;4.748;2023-08-20T04:20:54;18.70;99.90
15127;DHT22;7664;52.008;4.748;2023-08-20T04:23:23;18.60;99.90
15127;DHT22;7664;52.008;4.748;2023-08-20T04:25:52;18.60;99.90
15127;DHT22;7664;52.008;4.748;2023-08-20T04:28:20;18.60;99.90
15127;DHT22;7664;52.008;4.748;2023-08-20T04:30:51;18.60;99.90
15127;DHT22;7664;52.008;4.748;2023-08-20T04:33:22;18.50;99.90
15127;DHT22;7664;52.008;4.748;2023-08-20T04:35:51;18.50;99.90
15127;DHT22;7664;52.008;4.748;2023-08-20T04:38:20;18.50;99.90
15127;DHT22;7664;52.008;4.748;2023-08-20T04:40:49;18.50;99.90
15127;DHT22;7664;52.008;4.748;2023-08-20T04:43:17;18.40;99.90
15127;DHT22;7664;52.008;4.748;2023-08-20T04:45:45;18.50;99.90
15127;DHT22;7664;52.008;4.748;2023-08-20T04:48:13;18.40;99.90
15127;DHT22;7664;52.008;4.748;2023-08-20T04:50:42;18.40;99.90
15127;DHT22;7664;52.008;4.748;2023-08-20T04:53:09;18.30;99.90
15127;DHT22;7664;52.008;4.748;2023-08-20T04:55:38;18.30;99.90
15127;DHT22;7664;52.008;4.748;2023-08-20T04:58:09;18.30;99.90
15127;DHT22;7664;52.008;4.748;2023-08-20T05:00:37;18.30;99.90
15127;DHT22;7664;52.008;4.748;2023-08-20T05:03:09;18.30;99.90
15127;DHT22;7664;52.008;4.748;2023-08-20T05:05:38;18.30;99.90
15127;DHT22;7664;52.008;4.748;2023-08-20T05:08:06;18.30;99.90
15127;DHT22;7664;52.008;4.748;2023-08-20T05:10:36;18.30;99.90
15127;DHT22;7664;52.008;4.748;2023-08-20T05:13:04;18.30;99.90
15127;DHT22;7664;52.008;4.748;2023-08-20T05:15:35;18.40;99.90
15127;DHT22;7664;52.008;4.748;2023-08-20T05:18:04;18.40;99.90
15127;DHT22;7664;52.008;4.748;2023-08-20T05:20:32;18.40;99.90
15127;DHT22;7664;52.008;4.748;2023-08-20T05:23:00;18.40;99.90
15127;DHT22;7664;52.008;4.748;2023-08-20T05:25:28;18.40;99.90
15127;DHT22;7664;52.008;4.748;2023-08-20T05:27:57;18.40;99.90
15127;DHT22;7664;52.008;4.748;2023-08-20T05:30:27;18.40;99.90
15127;DHT22;7664;52.008;4.748;2023-08-20T05:32:57;18.50;99.90
15127;DHT22;7664;52.008;4.748;2023-08-20T05:35:26;18.50;99.90
15127;DHT22;7664;52.008;4.748;2023-08-20T05:37:55;18.50;99.90
15127;DHT22;7664;52.008;4.748;2023-08-20T05:40:23;18.50;99.90
15127;DHT22;7664;52.008;4.748;2023-08-20T05:42:51;18.60;99.90
15127;DHT22;7664;52.008;4.748;2023-08-20T05:45:19;18.60;99.90
15127;DHT22;7664;52.008;4.748;2023-08-20T05:47:49;18.70;99.90
15127;DHT22;7664;52.008;4.748;2023-08-20T05:50:18;18.80;99.90
15127;DHT22;7664;52.008;4.748;2023-08-20T05:52:47;19.30;99.90
15127;DHT22;7664;52.008;4.748;2023-08-20T05:55:16;20.10;99.90
15127;DHT22;7664;52.008;4.748;2023-08-20T05:57:46;20.90;99.90
15127;DHT22;7664;52.008;4.748;2023-08-20T06:00:15;21.40;99.90
15127;DHT22;7664;52.008;4.748;2023-08-20T06:02:46;21.80;99.90
15127;DHT22;7664;52.008;4.748;2023-08-20T06:05:17;22.50;99.90
15127;DHT22;7664;52.008;4.748;2023-08-20T06:07:45;23.30;99.90
15127;DHT22;7664;52.008;4.748;2023-08-20T06:10:13;24.30;99.90
15127;DHT22;7664;52.008;4.748;2023-08-20T06:12:41;25.40;99.90
15127;DHT22;7664;52.008;4.748;2023-08-20T06:15:09;26.50;99.90
15127;DHT22;7664;52.008;4.748;2023-08-20T06:17:37;27.60;99.90
15127;DHT22;7664;52.008;4.748;2023-08-20T06:20:07;28.50;99.90
15127;DHT22;7664;52.008;4.748;2023-08-20T06:22:38;29.20;99.90
15127;DHT22;7664;52.008;4.748;2023-08-20T06:25:07;29.90;99.90
15127;DHT22;7664;52.008;4.748;2023-08-20T06:27:35;30.40;99.90
15127;DHT22;7664;52.008;4.748;2023-08-20T06:30:05;31.00;99.90
15127;DHT22;7664;52.008;4.748;2023-08-20T06:32:34;31.30;99.90
15127;DHT22;7664;52.008;4.748;2023-08-20T06:35:02;31.80;99.90
15127;DHT22;7664;52.008;4.748;2023-08-20T06:37:30;32.20;99.90
15127;DHT22;7664;52.008;4.748;2023-08-20T06:40:00;32.60;99.90
15127;DHT22;7664;52.008;4.748;2023-08-20T06:42:28;32.90;96.40
15127;DHT22;7664;52.008;4.748;2023-08-20T06:44:56;33.10;96.00
15127;DHT22;7664;52.008;4.748;2023-08-20T06:47:25;33.20;94.50
15127;DHT22;7664;52.008;4.748;2023-08-20T06:49:53;33.30;93.30
15127;DHT22;7664;52.008;4.748;2023-08-20T06:52:21;33.00;91.10
15127;DHT22;7664;52.008;4.748;2023-08-20T06:54:49;33.10;90.50
15127;DHT22;7664;52.008;4.748;2023-08-20T06:57:18;32.70;87.20
15127;DHT22;7664;52.008;4.748;2023-08-20T06:59:46;32.30;86.80
15127;DHT22;7664;52.008;4.748;2023-08-20T07:02:14;32.00;87.70
15127;DHT22;7664;52.008;4.748;2023-08-20T07:04:42;31.70;87.80
15127;DHT22;7664;52.008;4.748;2023-08-20T07:07:11;31.40;89.70
15127;DHT22;7664;52.008;4.748;2023-08-20T07:09:40;31.10;90.20
15127;DHT22;7664;52.008;4.748;2023-08-20T07:12:08;30.90;90.40
15127;DHT22;7664;52.008;4.748;2023-08-20T07:14:37;30.60;90.10
15127;DHT22;7664;52.008;4.748;2023-08-20T07:17:05;30.40;90.50
15127;DHT22;7664;52.008;4.748;2023-08-20T07:19:33;30.60;91.50
15127;DHT22;7664;52.008;4.748;2023-08-20T07:22:02;30.70;91.30
15127;DHT22;7664;52.008;4.748;2023-08-20T07:24:30;30.60;90.40
15127;DHT22;7664;52.008;4.748;2023-08-20T07:27:01;30.90;91.40
15127;DHT22;7664;52.008;4.748;2023-08-20T07:29:30;31.10;90.70
15127;DHT22;7664;52.008;4.748;2023-08-20T07:32:00;31.30;90.40
15127;DHT22;7664;52.008;4.748;2023-08-20T07:34:30;31.60;89.60
15127;DHT22;7664;52.008;4.748;2023-08-20T07:37:00;31.90;90.00
15127;DHT22;7664;52.008;4.748;2023-08-20T07:39:29;32.10;88.10
15127;DHT22;7664;52.008;4.748;2023-08-20T07:41:57;32.40;88.40
15127;DHT22;7664;52.008;4.748;2023-08-20T07:44:25;32.60;85.90
15127;DHT22;7664;52.008;4.748;2023-08-20T07:46:54;32.80;85.20
15127;DHT22;7664;52.008;4.748;2023-08-20T07:49:24;33.10;84.80
15127;DHT22;7664;52.008;4.748;2023-08-20T07:51:52;33.50;82.30
15127;DHT22;7664;52.008;4.748;2023-08-20T07:54:21;33.60;81.10
15127;DHT22;7664;52.008;4.748;2023-08-20T07:56:49;33.70;80.20
15127;DHT22;7664;52.008;4.748;2023-08-20T07:59:17;34.00;79.50
15127;DHT22;7664;52.008;4.748;2023-08-20T08:01:45;34.30;78.00
15127;DHT22;7664;52.008;4.748;2023-08-20T08:04:13;34.60;76.50
15127;DHT22;7664;52.008;4.748;2023-08-20T08:06:43;34.90;74.90
15127;DHT22;7664;52.008;4.748;2023-08-20T08:09:21;35.10;71.90
15127;DHT22;7664;52.008;4.748;2023-08-20T08:11:49;35.20;67.10
15127;DHT22;7664;52.008;4.748;2023-08-20T08:14:18;35.10;67.60
15127;DHT22;7664;52.008;4.748;2023-08-20T08:16:46;35.00;67.00
15127;DHT22;7664;52.008;4.748;2023-08-20T08:19:15;34.90;64.80
15127;DHT22;7664;52.008;4.748;2023-08-20T08:21:45;34.60;62.30
15127;DHT22;7664;52.008;4.748;2023-08-20T08:24:13;34.30;60.40
15127;DHT22;7664;52.008;4.748;2023-08-20T08:26:42;34.00;60.50
15127;DHT22;7664;52.008;4.748;2023-08-20T08:29:10;33.60;59.00
15127;DHT22;7664;52.008;4.748;2023-08-20T08:31:38;33.10;58.00
15127;DHT22;7664;52.008;4.748;2023-08-20T08:34:07;32.70;58.20
15127;DHT22;7664;52.008;4.748;2023-08-20T08:36:35;32.10;58.00
15127;DHT22;7664;52.008;4.748;2023-08-20T08:39:06;31.70;60.10
15127;DHT22;7664;52.008;4.748;2023-08-20T08:41:38;31.40;60.60
15127;DHT22;7664;52.008;4.748;2023-08-20T08:44:08;31.20;61.00
15127;DHT22;7664;52.008;4.748;2023-08-20T08:46:38;30.80;61.30
15127;DHT22;7664;52.008;4.748;2023-08-20T08:49:06;30.40;62.10
15127;DHT22;7664;52.008;4.748;2023-08-20T08:51:36;30.10;62.50
15127;DHT22;7664;52.008;4.748;2023-08-20T08:54:07;29.70;63.80
15127;DHT22;7664;52.008;4.748;2023-08-20T08:56:36;29.40;65.60
15127;DHT22;7664;52.008;4.748;2023-08-20T08:59:04;29.10;66.40
15127;DHT22;7664;52.008;4.748;2023-08-20T09:01:36;28.60;66.30
15127;DHT22;7664;52.008;4.748;2023-08-20T09:04:05;28.50;67.40
15127;DHT22;7664;52.008;4.748;2023-08-20T09:06:45;28.20;68.10
15127;DHT22;7664;52.008;4.748;2023-08-20T09:09:15;27.90;67.70
15127;DHT22;7664;52.008;4.748;2023-08-20T09:11:44;27.80;70.70
15127;DHT22;7664;52.008;4.748;2023-08-20T09:14:21;27.70;72.90
15127;DHT22;7664;52.008;4.748;2023-08-20T09:16:57;27.90;71.90
15127;DHT22;7664;52.008;4.748;2023-08-20T09:19:28;28.10;72.70
15127;DHT22;7664;52.008;4.748;2023-08-20T09:21:59;28.20;72.40
15127;DHT22;7664;52.008;4.748;2023-08-20T09:24:34;28.30;73.50
15127;DHT22;7664;52.008;4.748;2023-08-20T09:27:04;28.30;73.20
15127;DHT22;7664;52.008;4.748;2023-08-20T09:29:33;28.30;73.10
15127;DHT22;7664;52.008;4.748;2023-08-20T09:32:02;28.30;73.40
15127;DHT22;7664;52.008;4.748;2023-08-20T09:34:37;28.20;74.00
15127;DHT22;7664;52.008;4.748;2023-08-20T09:37:09;28.20;75.00
15127;DHT22;7664;52.008;4.748;2023-08-20T09:39:39;28.10;74.10
15127;DHT22;7664;52.008;4.748;2023-08-20T09:42:08;27.90;74.10
15127;DHT22;7664;52.008;4.748;2023-08-20T09:44:38;27.80;73.30
15127;DHT22;7664;52.008;4.748;2023-08-20T09:47:08;27.60;72.50
15127;DHT22;7664;52.008;4.748;2023-08-20T09:49:38;27.40;72.90
15127;DHT22;7664;52.008;4.748;2023-08-20T09:52:07;27.30;73.70
15127;DHT22;7664;52.008;4.748;2023-08-20T09:54:49;27.20;72.40
15127;DHT22;7664;52.008;4.748;2023-08-20T09:57:26;27.00;71.30
15127;DHT22;7664;52.008;4.748;2023-08-20T09:59:55;26.70;71.70
15127;DHT22;7664;52.008;4.748;2023-08-20T10:02:25;26.70;72.20
15127;DHT22;7664;52.008;4.748;2023-08-20T10:04:53;26.60;73.80
15127;DHT22;7664;52.008;4.748;2023-08-20T10:07:22;26.50;74.70
15127;DHT22;7664;52.008;4.748;2023-08-20T10:09:54;26.50;75.10
15127;DHT22;7664;52.008;4.748;2023-08-20T10:12:24;26.60;75.20
15127;DHT22;7664;52.008;4.748;2023-08-20T10:14:52;26.50;74.60
15127;DHT22;7664;52.008;4.748;2023-08-20T10:17:22;26.50;74.50
15127;DHT22;7664;52.008;4.748;2023-08-20T10:19:51;26.40;74.70
15127;DHT22;7664;52.008;4.748;2023-08-20T10:22:19;26.30;75.60
15127;DHT22;7664;52.008;4.748;2023-08-20T10:24:48;26.30;76.60
15127;DHT22;7664;52.008;4.748;2023-08-20T10:27:28;26.30;77.00
15127;DHT22;7664;52.008;4.748;2023-08-20T10:30:00;26.30;76.40
15127;DHT22;7664;52.008;4.748;2023-08-20T10:32:49;26.20;77.00
15127;DHT22;7664;52.008;4.748;2023-08-20T10:35:22;26.20;77.00
15127;DHT22;7664;52.008;4.748;2023-08-20T10:38:04;26.00;76.60
15127;DHT22;7664;52.008;4.748;2023-08-20T10:40:53;26.00;78.10
15127;DHT22;7664;52.008;4.748;2023-08-20T10:43:31;25.90;74.80
15127;DHT22;7664;52.008;4.748;2023-08-20T10:46:03;25.90;76.10
15127;DHT22;7664;52.008;4.748;2023-08-20T10:48:37;26.00;77.70
15127;DHT22;7664;52.008;4.748;2023-08-20T10:51:13;26.00;75.90
15127;DHT22;7664;52.008;4.748;2023-08-20T10:53:43;25.90;74.60
15127;DHT22;7664;52.008;4.748;2023-08-20T10:56:12;25.80;75.40
15127;DHT22;7664;52.008;4.748;2023-08-20T10:58:50;25.80;76.30
15127;DHT22;7664;52.008;4.748;2023-08-20T11:01:20;25.70;75.40
15127;DHT22;7664;52.008;4.748;2023-08-20T11:03:49;25.70;77.90
15127;DHT22;7664;52.008;4.748;2023-08-20T11:06:18;25.70;78.10
15127;DHT22;7664;52.008;4.748;2023-08-20T11:08:46;25.80;78.20
15127;DHT22;7664;52.008;4.748;2023-08-20T11:11:15;25.70;78.60
15127;DHT22;7664;52.008;4.748;2023-08-20T11:13:46;25.70;79.90
15127;DHT22;7664;52.008;4.748;2023-08-20T11:16:14;25.80;78.40
15127;DHT22;7664;52.008;4.748;2023-08-20T11:18:42;25.80;78.70
15127;DHT22;7664;52.008;4.748;2023-08-20T11:21:12;25.80;78.90
15127;DHT22;7664;52.008;4.748;2023-08-20T11:23:41;25.90;79.60
15127;DHT22;7664;52.008;4.748;2023-08-20T11:26:10;25.80;79.60
15127;DHT22;7664;52.008;4.748;2023-08-20T11:28:38;25.80;79.90
15127;DHT22;7664;52.008;4.748;2023-08-20T11:31:08;25.80;80.60
15127;DHT22;7664;52.008;4.748;2023-08-20T11:33:36;25.80;80.10
15127;DHT22;7664;52.008;4.748;2023-08-20T11:36:05;25.90;79.70
15127;DHT22;7664;52.008;4.748;2023-08-20T11:38:34;25.80;79.00
15127;DHT22;7664;52.008;4.748;2023-08-20T11:41:02;25.80;81.00
15127;DHT22;7664;52.008;4.748;2023-08-20T11:43:30;25.90;81.40
15127;DHT22;7664;52.008;4.748;2023-08-20T11:45:58;25.90;80.70
15127;DHT22;7664;52.008;4.748;2023-08-20T11:48:28;26.00;81.50
15127;DHT22;7664;52.008;4.748;2023-08-20T11:50:57;26.00;80.80
15127;DHT22;7664;52.008;4.748;2023-08-20T11:53:28;26.10;79.90
15127;DHT22;7664;52.008;4.748;2023-08-20T11:55:56;26.10;79.50
15127;DHT22;7664;52.008;4.748;2023-08-20T11:58:24;26.20;80.90
15127;DHT22;7664;52.008;4.748;2023-08-20T12:00:52;26.20;80.70
15127;DHT22;7664;52.008;4.748;2023-08-20T12:03:20;26.20;79.40
15127;DHT22;7664;52.008;4.748;2023-08-20T12:05:50;26.20;80.40
15127;DHT22;7664;52.008;4.748;2023-08-20T12:08:18;26.20;80.50
15127;DHT22;7664;52.008;4.748;2023-08-20T12:10:47;26.30;80.60
15127;DHT22;7664;52.008;4.748;2023-08-20T12:13:15;26.30;81.40
15127;DHT22;7664;52.008;4.748;2023-08-20T12:15:43;26.40;80.80
15127;DHT22;7664;52.008;4.748;2023-08-20T12:18:11;26.40;80.20
15127;DHT22;7664;52.008;4.748;2023-08-20T12:20:39;26.40;81.20
15127;DHT22;7664;52.008;4.748;2023-08-20T12:23:09;26.40;81.80
15127;DHT22;7664;52.008;4.748;2023-08-20T12:25:37;26.40;81.10
15127;DHT22;7664;52.008;4.748;2023-08-20T12:28:05;26.50;81.30
15127;DHT22;7664;52.008;4.748;2023-08-20T12:30:34;26.50;80.00
15127;DHT22;7664;52.008;4.748;2023-08-20T12:33:05;26.40;79.80
15127;DHT22;7664;52.008;4.748;2023-08-20T12:35:34;26.40;79.60
15127;DHT22;7664;52.008;4.748;2023-08-20T12:38:03;26.40;78.60
15127;DHT22;7664;52.008;4.748;2023-08-20T12:40:33;26.50;79.80
15127;DHT22;7664;52.008;4.748;2023-08-20T12:43:01;26.60;80.80
15127;DHT22;7664;52.008;4.748;2023-08-20T12:45:29;26.60;80.70
15127;DHT22;7664;52.008;4.748;2023-08-20T12:47:57;26.70;78.80
15127;DHT22;7664;52.008;4.748;2023-08-20T12:50:28;26.70;76.30
15127;DHT22;7664;52.008;4.748;2023-08-20T12:52:56;26.60;76.60
15127;DHT22;7664;52.008;4.748;2023-08-20T12:55:24;26.60;78.00
15127;DHT22;7664;52.008;4.748;2023-08-20T12:57:58;26.70;78.80
15127;DHT22;7664;52.008;4.748;2023-08-20T13:00:27;26.80;79.30
15127;DHT22;7664;52.008;4.748;2023-08-20T13:02:56;26.80;79.00
15127;DHT22;7664;52.008;4.748;2023-08-20T13:05:25;26.80;79.30
15127;DHT22;7664;52.008;4.748;2023-08-20T13:07:54;26.90;78.80
15127;DHT22;7664;52.008;4.748;2023-08-20T13:10:22;26.90;79.10
15127;DHT22;7664;52.008;4.748;2023-08-20T13:12:52;26.90;77.00
15127;DHT22;7664;52.008;4.748;2023-08-20T13:15:23;26.90;76.90
15127;DHT22;7664;52.008;4.748;2023-08-20T13:17:53;26.90;77.00
15127;DHT22;7664;52.008;4.748;2023-08-20T13:20:22;26.90;77.20
15127;DHT22;7664;52.008;4.748;2023-08-20T13:22:54;26.90;76.10
15127;DHT22;7664;52.008;4.748;2023-08-20T13:25:22;26.90;74.90
15127;DHT22;7664;52.008;4.748;2023-08-20T13:27:50;26.80;75.70
15127;DHT22;7664;52.008;4.748;2023-08-20T13:30:18;26.80;76.10
15127;DHT22;7664;52.008;4.748;2023-08-20T13:32:49;26.80;77.00
15127;DHT22;7664;52.008;4.748;2023-08-20T13:35:17;26.80;76.40
15127;DHT22;7664;52.008;4.748;2023-08-20T13:37:45;27.00;76.00
15127;DHT22;7664;52.008;4.748;2023-08-20T13:40:14;27.00;76.40
15127;DHT22;7664;52.008;4.748;2023-08-20T13:42:42;27.10;72.10
15127;DHT22;7664;52.008;4.748;2023-08-20T13:45:10;27.00;72.00
15127;DHT22;7664;52.008;4.748;2023-08-20T13:47:38;26.90;72.90
15127;DHT22;7664;52.008;4.748;2023-08-20T13:50:08;26.90;73.40
15127;DHT22;7664;52.008;4.748;2023-08-20T13:52:37;26.90;74.20
15127;DHT22;7664;52.008;4.748;2023-08-20T13:55:06;26.80;72.20
15127;DHT22;7664;52.008;4.748;2023-08-20T13:57:35;26.70;72.50
15127;DHT22;7664;52.008;4.748;2023-08-20T14:00:04;26.50;73.10
15127;DHT22;7664;52.008;4.748;2023-08-20T14:02:37;26.50;74.90
15127;DHT22;7664;52.008;4.748;2023-08-20T14:05:08;26.40;75.80
15127;DHT22;7664;52.008;4.748;2023-08-20T14:07:37;26.30;77.20
15127;DHT22;7664;52.008;4.748;2023-08-20T14:10:06;26.10;78.40
15127;DHT22;7664;52.008;4.748;2023-08-20T14:12:35;26.00;79.80
15127;DHT22;7664;52.008;4.748;2023-08-20T14:15:08;26.00;79.50
15127;DHT22;7664;52.008;4.748;2023-08-20T14:17:36;26.00;80.40
15127;DHT22;7664;52.008;4.748;2023-08-20T14:20:07;26.00;81.00
15127;DHT22;7664;52.008;4.748;2023-08-20T14:22:38;25.90;81.10
15127;DHT22;7664;52.008;4.748;2023-08-20T14:25:07;25.80;81.60
15127;DHT22;7664;52.008;4.748;2023-08-20T14:27:37;25.80;81.30
15127;DHT22;7664;52.008;4.748;2023-08-20T14:30:08;25.70;81.60
15127;DHT22;7664;52.008;4.748;2023-08-20T14:32:37;25.80;81.10
15127;DHT22;7664;52.008;4.748;2023-08-20T14:35:09;25.80;81.00
15127;DHT22;7664;52.008;4.748;2023-08-20T14:37:37;25.90;80.50
15127;DHT22;7664;52.008;4.748;2023-08-20T14:40:06;25.90;79.50
15127;DHT22;7664;52.008;4.748;2023-08-20T14:42:37;25.90;79.20
15127;DHT22;7664;52.008;4.748;2023-08-20T14:45:06;25.80;79.40
15127;DHT22;7664;52.008;4.748;2023-08-20T14:47:35;25.80;79.10
15127;DHT22;7664;52.008;4.748;2023-08-20T14:50:04;25.90;79.40
15127;DHT22;7664;52.008;4.748;2023-08-20T14:52:37;25.90;79.90
15127;DHT22;7664;52.008;4.748;2023-08-20T14:55:06;25.90;79.50
15127;DHT22;7664;52.008;4.748;2023-08-20T14:57:37;25.70;79.30
15127;DHT22;7664;52.008;4.748;2023-08-20T15:00:18;25.50;79.60
15127;DHT22;7664;52.008;4.748;2023-08-20T15:02:47;25.60;81.40
15127;DHT22;7664;52.008;4.748;2023-08-20T15:05:15;25.80;81.30
15127;DHT22;7664;52.008;4.748;2023-08-20T15:07:44;25.90;80.80
15127;DHT22;7664;52.008;4.748;2023-08-20T15:10:12;26.00;81.10
15127;DHT22;7664;52.008;4.748;2023-08-20T15:12:41;26.10;81.60
15127;DHT22;7664;52.008;4.748;2023-08-20T15:15:09;26.20;81.60
15127;DHT22;7664;52.008;4.748;2023-08-20T15:17:38;26.10;78.60
15127;DHT22;7664;52.008;4.748;2023-08-20T15:20:07;26.10;80.20
15127;DHT22;7664;52.008;4.748;2023-08-20T15:22:38;26.30;81.30
15127;DHT22;7664;52.008;4.748;2023-08-20T15:25:09;26.50;81.00
15127;DHT22;7664;52.008;4.748;2023-08-20T15:27:38;26.50;79.20
15127;DHT22;7664;52.008;4.748;2023-08-20T15:30:07;26.60;75.90
15127;DHT22;7664;52.008;4.748;2023-08-20T15:32:35;26.60;76.50
15127;DHT22;7664;52.008;4.748;2023-08-20T15:35:04;26.60;75.40
15127;DHT22;7664;52.008;4.748;2023-08-20T15:37:33;26.40;74.10
15127;DHT22;7664;52.008;4.748;2023-08-20T15:40:02;26.50;74.90
15127;DHT22;7664;52.008;4.748;2023-08-20T15:42:37;26.30;75.70
15127;DHT22;7664;52.008;4.748;2023-08-20T15:45:06;26.20;76.10
15127;DHT22;7664;52.008;4.748;2023-08-20T15:47:35;26.10;75.20
15127;DHT22;7664;52.008;4.748;2023-08-20T15:50:07;26.10;76.80
15127;DHT22;7664;52.008;4.748;2023-08-20T15:52:36;26.20;77.40
15127;DHT22;7664;52.008;4.748;2023-08-20T15:55:05;26.20;76.50
15127;DHT22;7664;52.008;4.748;2023-08-20T15:57:33;26.10;75.80
15127;DHT22;7664;52.008;4.748;2023-08-20T16:00:04;26.10;76.60